createdAt,value
2023-01-15T00:01:15.214Z,975.97
2023-01-15T00:07:15.215Z,975.95
2023-01-15T00:13:15.217Z,975.86
2023-01-15T00:19:15.210Z,975.86
2023-01-15T00:25:15.214Z,975.97
2023-01-15T00:31:15.262Z,975.98
2023-01-15T00:37:15.284Z,976.01
2023-01-15T00:43:15.247Z,975.72
2023-01-15T00:49:15.204Z,975.79
2023-01-15T00:55:15.284Z,975.63
2023-01-15T01:01:15.344Z,975.53
2023-01-15T01:07:15.280Z,975.49
2023-01-15T01:13:15.276Z,975.42
2023-01-15T01:19:15.277Z,975.20
2023-01-15T01:25:15.289Z,975.21
2023-01-15T01:31:15.426Z,975.15
2023-01-15T01:37:15.310Z,974.94
2023-01-15T01:43:15.316Z,974.97
2023-01-15T01:49:15.303Z,974.78
2023-01-15T01:55:15.306Z,974.72
2023-01-15T02:01:15.376Z,974.72
2023-01-15T02:07:15.330Z,974.66
2023-01-15T02:13:15.295Z,974.60
2023-01-15T02:19:15.327Z,974.40
2023-01-15T02:25:15.312Z,974.37
2023-01-15T02:31:15.396Z,974.29
2023-01-15T02:49:15.352Z,973.98
2023-01-15T02:55:15.341Z,973.96
2023-01-15T03:01:15.430Z,973.86
2023-01-15T03:07:15.362Z,973.77
2023-01-15T03:13:15.411Z,973.52
2023-01-15T03:19:15.768Z,973.37
2023-01-15T03:25:15.369Z,973.35
2023-01-15T03:31:15.375Z,973.26
2023-01-15T03:37:15.374Z,973.29
2023-01-15T03:43:15.378Z,973.30
2023-01-15T03:49:15.375Z,973.12
2023-01-15T03:55:15.411Z,973.02
2023-01-15T04:01:15.580Z,972.94
2023-01-15T04:07:15.426Z,972.86
2023-01-15T04:13:15.380Z,972.67
2023-01-15T04:19:15.392Z,972.65
2023-01-15T04:25:15.389Z,972.58
2023-01-15T04:31:15.463Z,972.55
2023-01-15T04:37:15.475Z,972.35
2023-01-15T04:43:15.436Z,972.43
2023-01-15T04:49:15.424Z,972.33
2023-01-15T04:55:15.488Z,972.16
2023-01-15T05:01:15.568Z,972.14
2023-01-15T05:07:15.410Z,972.13
2023-01-15T05:13:15.444Z,972.05
2023-01-15T05:19:15.440Z,972.04
2023-01-15T05:25:15.427Z,972.10
2023-01-15T05:31:15.624Z,971.89
2023-01-15T05:37:15.444Z,971.88
2023-01-15T05:43:15.494Z,971.72
2023-01-15T05:49:15.481Z,971.67
2023-01-15T05:55:15.508Z,971.60
2023-01-15T06:01:15.520Z,971.47
2023-01-15T06:07:15.499Z,971.62
2023-01-15T06:13:15.491Z,971.66
2023-01-15T06:19:15.509Z,971.75
2023-01-15T06:25:15.530Z,971.61
2023-01-15T06:31:15.520Z,971.70
2023-01-15T06:37:15.530Z,971.66
2023-01-15T06:43:15.538Z,971.75
2023-01-15T06:49:15.529Z,971.77
2023-01-15T06:55:15.561Z,971.70
2023-01-15T07:01:15.616Z,971.69
2023-01-15T07:07:15.546Z,971.65
2023-01-15T07:13:15.583Z,971.54
2023-01-15T07:19:15.567Z,971.54
2023-01-15T07:25:15.560Z,971.54
2023-01-15T07:31:15.613Z,971.58
2023-01-15T07:37:15.547Z,971.58
2023-01-15T07:43:15.616Z,971.59
2023-01-15T07:49:15.575Z,971.61
2023-01-15T07:55:15.583Z,971.54
2023-01-15T08:07:15.615Z,971.56
2023-01-15T08:13:15.610Z,971.59
2023-01-15T08:19:15.605Z,971.51
2023-01-15T08:25:15.631Z,971.50
2023-01-15T08:31:15.718Z,971.43
2023-01-15T08:37:15.609Z,971.37
2023-01-15T08:43:15.655Z,971.26
2023-01-15T08:49:15.645Z,970.97
2023-01-15T08:55:15.642Z,970.84
2023-01-15T09:01:15.792Z,970.82
2023-01-15T09:07:15.614Z,970.70
2023-01-15T09:13:15.632Z,970.83
2023-01-15T09:19:15.662Z,970.92
2023-01-15T09:25:15.667Z,970.87
2023-01-15T09:31:15.732Z,970.90
2023-01-15T09:37:15.648Z,970.60
2023-01-15T09:43:15.656Z,970.60
2023-01-15T09:49:15.623Z,970.51
2023-01-15T09:55:15.646Z,970.59
2023-01-15T10:01:15.677Z,970.62
2023-01-15T10:07:15.706Z,970.69
2023-01-15T10:13:15.693Z,970.58
2023-01-15T10:19:15.667Z,970.53
2023-01-15T10:25:15.722Z,970.54
2023-01-15T10:31:15.769Z,970.52
2023-01-15T10:37:15.709Z,970.33
2023-01-15T10:43:15.700Z,970.32
2023-01-15T10:49:15.714Z,970.18
2023-01-15T10:55:15.707Z,969.98
2023-01-15T11:01:15.856Z,970.02
2023-01-15T11:07:15.804Z,969.89
2023-01-15T11:13:15.769Z,969.73
2023-01-15T11:19:15.744Z,969.49
2023-01-15T11:25:15.760Z,969.19
2023-01-15T11:31:15.805Z,969.29
2023-01-15T11:37:15.749Z,969.17
2023-01-15T11:43:15.765Z,969.19
2023-01-15T11:49:15.786Z,969.11
2023-01-15T11:55:15.767Z,969.13
2023-01-15T12:01:15.779Z,969.03
2023-01-15T12:07:15.806Z,969.15
2023-01-15T12:13:15.813Z,969.21
2023-01-15T12:19:15.784Z,969.19
2023-01-15T12:25:15.780Z,969.13
2023-01-15T12:31:15.840Z,969.04
2023-01-15T12:37:15.824Z,968.97
2023-01-15T12:43:15.849Z,969.22
2023-01-15T12:49:15.831Z,969.23
2023-01-15T12:55:15.821Z,969.14
2023-01-15T13:01:16.064Z,969.07
2023-01-15T13:07:15.838Z,969.11
2023-01-15T13:13:15.830Z,969.25
2023-01-15T13:19:15.867Z,969.04
2023-01-15T13:25:15.876Z,968.91
2023-01-15T13:31:15.873Z,968.77
2023-01-15T13:37:15.881Z,969.07
2023-01-15T13:43:15.895Z,969.10
2023-01-15T13:55:16.355Z,969.04
2023-01-15T14:07:16.752Z,969.16
2023-01-15T14:19:17.219Z,969.29
2023-01-15T14:31:17.669Z,969.08
2023-01-15T14:43:18.139Z,969.21
2023-01-15T14:55:18.592Z,969.60
2023-01-15T15:07:19.059Z,969.76
2023-01-15T15:19:19.540Z,969.88
2023-01-15T15:31:20.022Z,970.04
2023-01-15T15:43:20.448Z,970.06
2023-01-15T15:55:20.868Z,970.41
2023-01-15T16:07:21.375Z,970.41
2023-01-15T16:19:21.792Z,970.72
2023-01-15T16:31:22.243Z,970.95
2023-01-15T16:43:22.689Z,971.81
2023-01-15T16:55:23.083Z,971.81
2023-01-15T17:07:23.567Z,971.50
2023-01-15T17:19:23.998Z,971.51
2023-01-15T17:31:24.481Z,971.62
2023-01-15T17:43:24.895Z,971.58
2023-01-15T17:55:25.375Z,971.92
2023-01-15T18:07:25.808Z,972.01
2023-01-15T18:19:26.253Z,972.35
2023-01-15T18:31:26.769Z,972.45
2023-01-15T18:43:27.183Z,972.54
2023-01-15T18:55:27.636Z,972.70
2023-01-15T19:07:28.057Z,972.84
2023-01-15T19:19:28.523Z,972.84
2023-01-15T19:31:29.031Z,972.77
2023-01-15T19:43:29.418Z,972.57
2023-01-15T19:55:29.917Z,972.52
2023-01-15T20:07:30.328Z,972.50
2023-01-15T20:19:30.811Z,972.52
2023-01-15T20:31:31.313Z,972.47
2023-01-15T20:43:31.699Z,972.49
2023-01-15T20:55:34.028Z,972.63
2023-01-15T21:07:32.630Z,972.47
2023-01-15T21:19:33.075Z,972.58
2023-01-15T21:31:33.544Z,972.34
2023-01-15T21:43:33.927Z,972.30
2023-01-15T21:55:34.416Z,972.40
2023-01-15T22:07:34.902Z,972.21
2023-01-15T22:19:35.304Z,971.97
2023-01-15T22:31:35.768Z,971.84
2023-01-15T22:43:36.255Z,971.72
2023-01-15T22:55:36.706Z,971.82
2023-01-15T23:07:37.128Z,971.66
2023-01-15T23:19:37.538Z,971.59
2023-01-15T23:31:38.048Z,971.54
2023-01-15T23:43:38.497Z,971.49
2023-01-15T23:55:38.938Z,971.54
